Djeneba — WDD7832 — position and weather

sailwx.info

Track history (hours):
 
Tides and Currents Weather Stations Pressure Air Temp Water Temp Dewpoint Dewpoint Depression Visibility Wind Speed Wind Dir Waves Ship Positions

Djeneba

More information available from US FCC via Universal Licensing System and Coast Guard Vessel Documentation Center.

Last reported at 2014-Jul-22 19:15 UTC. Time now 2014-Jul-24 17:46 UTC.
Position N 50°33' W 126°50'.

Length 19 m.

Type: Pleasure craft. MMSI: 367191910.

Date/timePositionNaut miles runAvg speedWind from/ knotsBaromVisibWave heightAir tempDewpointWater temp
2014-Jul-22 19:15N 50°33' W 126°50'  
2014-Jul-14 17:30N 49°46' W 124°24'5 5.4
2014-Jul-14 16:31N 49°46' W 124°16'0 0.0
2014-Jul-14 14:31N 49°46' W 124°16'0 0.0
2014-Jul-14 13:31N 49°46' W 124°16'0 0.0
2014-Jul-14 12:07N 49°46' W 124°16'0 0.0
2014-Jul-14 11:31N 49°46' W 124°16'0 0.0
2014-Jul-14 10:25N 49°46' W 124°16'0 0.0
2014-Jul-14 09:31N 49°46' W 124°16'0 0.0
2014-Jul-14 08:31N 49°46' W 124°16'0 0.0
2014-Jul-14 07:13N 49°46' W 124°16'0 0.0
2014-Jul-14 06:26N 49°46' W 124°16'0 0.0
2014-Jul-14 05:32N 49°46' W 124°16'0 0.0
2014-Jul-14 04:14N 49°46' W 124°16'0 0.0
2014-Jul-14 03:32N 49°46' W 124°16'0 0.0
2014-Jul-14 02:08N 49°46' W 124°16'0 0.0
2014-Jul-14 01:26N 49°46' W 124°16'0 0.0
2014-Jul-13 23:20N 49°46' W 124°16'2 2.6
2014-Jul-13 22:30N 49°46' W 124°13'8 8.5
2014-Jul-13 21:33N 49°50' W 124°02'2 1.5
2014-Jul-13 20:25N 49°52' W 124°01'0 0.0
2014-Jul-13 19:25N 49°52' W 124°01'0 0.0
2014-Jul-13 18:25N 49°52' W 124°01'4 4.6
2014-Jul-13 17:31N 49°49' W 123°57'4 4.3
2014-Jul-13 16:32N 49°45' W 124°01'9 9.5
2014-Jul-13 15:32N 49°36' W 124°05'1010.0
2014-Jul-13 14:31N 49°26' W 124°01'9 9.6
2014-Jul-13 13:33N 49°17' W 123°56'7 0.5
2014-Jul-12 23:17N 49°10' W 123°56'0 0.0
2014-Jul-12 19:29N 49°10' W 123°56'  
Track history (hours):
 
Tides and Currents Weather Stations Pressure Air Temp Water Temp Dewpoint Dewpoint Depression Visibility Wind Speed Wind Dir Waves Ship Positions

Djeneba

More information available from US FCC via Universal Licensing System and Coast Guard Vessel Documentation Center.

Last reported at 2014-Jul-22 19:15 UTC. Time now 2014-Jul-24 17:46 UTC.
Position N 50°33' W 126°50'.

Length 19 m.

Type: Pleasure craft. MMSI: 367191910.

Date/timePositionNaut miles runAvg speedWind from/ knotsBaromVisibWave heightAir tempDewpointWater temp
2014-Jul-22 19:15N 50°33' W 126°50'  
2014-Jul-14 17:30N 49°46' W 124°24'5 5.4
2014-Jul-14 16:31N 49°46' W 124°16'0 0.0
2014-Jul-14 14:31N 49°46' W 124°16'0 0.0
2014-Jul-14 13:31N 49°46' W 124°16'0 0.0
2014-Jul-14 12:07N 49°46' W 124°16'0 0.0
2014-Jul-14 11:31N 49°46' W 124°16'0 0.0
2014-Jul-14 10:25N 49°46' W 124°16'0 0.0
2014-Jul-14 09:31N 49°46' W 124°16'0 0.0
2014-Jul-14 08:31N 49°46' W 124°16'0 0.0
2014-Jul-14 07:13N 49°46' W 124°16'0 0.0
2014-Jul-14 06:26N 49°46' W 124°16'0 0.0
2014-Jul-14 05:32N 49°46' W 124°16'0 0.0
2014-Jul-14 04:14N 49°46' W 124°16'0 0.0
2014-Jul-14 03:32N 49°46' W 124°16'0 0.0
2014-Jul-14 02:08N 49°46' W 124°16'0 0.0
2014-Jul-14 01:26N 49°46' W 124°16'0 0.0
2014-Jul-13 23:20N 49°46' W 124°16'2 2.6
2014-Jul-13 22:30N 49°46' W 124°13'8 8.5
2014-Jul-13 21:33N 49°50' W 124°02'2 1.5
2014-Jul-13 20:25N 49°52' W 124°01'0 0.0
2014-Jul-13 19:25N 49°52' W 124°01'0 0.0
2014-Jul-13 18:25N 49°52' W 124°01'4 4.6
2014-Jul-13 17:31N 49°49' W 123°57'4 4.3
2014-Jul-13 16:32N 49°45' W 124°01'9 9.5
2014-Jul-13 15:32N 49°36' W 124°05'1010.0
2014-Jul-13 14:31N 49°26' W 124°01'9 9.6
2014-Jul-13 13:33N 49°17' W 123°56'7 0.5
2014-Jul-12 23:17N 49°10' W 123°56'0 0.0
2014-Jul-12 19:29N 49°10' W 123°56'  

Dump ship's entire track history